Time;durP1;ratioP1;P1;durP2;ratioP2;P2;SDS_P1;SDS_P2;PMS_P1;PMS_P2;Temp;Humidity;BMP_temperature;BMP_pressure;BME280_temperature;BME280_humidity;BME280_pressure;Samples;Min_cycle;Max_cycle;Signal;HPM_P1;HPM_P2
2022/01/14 00:02:23;;;;;;;29.40;18.40;;;;;;;-0.77;58.87;100804.00;5069927;28;20274;-57
2022/01/14 00:04:50;;;;;;;27.77;18.03;;;;;;;-0.75;58.47;100787.38;5069957;28;20219;-57
2022/01/14 00:07:18;;;;;;;31.45;19.83;;;;;;;-0.69;58.42;100787.84;5069115;28;21010;-56
2022/01/14 00:09:47;;;;;;;29.07;17.60;;;;;;;-0.65;58.19;100791.50;5066670;28;20195;-57
2022/01/14 00:12:18;;;;;;;26.30;17.37;;;;;;;-0.66;58.79;100793.13;5068902;28;20192;-57
2022/01/14 00:14:57;;;;;;;26.93;16.33;;;;;;;-0.64;58.68;100791.66;5068257;28;20249;-57
2022/01/14 00:17:24;;;;;;;29.23;16.20;;;;;;;-0.61;57.72;100796.94;5068186;28;20217;-57
2022/01/14 00:19:50;;;;;;;27.57;17.33;;;;;;;-0.59;57.82;100797.06;5068313;28;20800;-57
2022/01/14 00:22:19;;;;;;;29.60;17.13;;;;;;;-0.56;58.34;100791.34;5076609;28;20589;-57
2022/01/14 00:33:06;;;;;;;23.90;15.30;;;;;;;-0.55;58.81;100808.28;5089827;28;20244;-57
2022/01/14 00:35:33;;;;;;;23.63;15.93;;;;;;;-0.58;59.42;100803.88;5089785;28;20241;-57
2022/01/14 00:38:02;;;;;;;27.47;16.60;;;;;;;-0.59;59.52;100799.56;5089767;28;20198;-58
2022/01/14 00:40:29;;;;;;;24.63;16.67;;;;;;;-0.68;59.66;100773.59;5093225;28;20290;-57
2022/01/14 00:42:56;;;;;;;25.33;15.70;;;;;;;-0.48;58.16;100786.16;5093621;28;20190;-57
2022/01/14 00:45:23;;;;;;;25.33;15.90;;;;;;;-0.47;57.91;100785.41;5093417;28;20221;-57
2022/01/14 00:47:50;;;;;;;21.77;14.13;;;;;;;-0.48;57.69;100788.69;5093281;28;20186;-57
2022/01/14 00:50:18;;;;;;;22.00;14.00;;;;;;;-0.44;57.35;100787.31;5093096;28;20191;-57
2022/01/14 00:52:46;;;;;;;22.67;13.97;;;;;;;-0.40;58.11;100796.88;5093261;28;20573;-58
2022/01/14 00:55:16;;;;;;;25.23;15.73;;;;;;;-0.43;57.67;100789.06;5093297;28;20194;-57
2022/01/14 01:00:30;;;;;;;24.37;15.97;;;;;;;-0.50;58.01;100801.97;5093058;28;20565;-57
2022/01/14 01:02:56;;;;;;;25.33;15.40;;;;;;;-0.52;58.82;100791.72;5093066;28;20214;-57
2022/01/14 01:05:24;;;;;;;24.30;15.60;;;;;;;-0.51;58.81;100810.28;5092720;28;20215;-57
2022/01/14 01:08:02;;;;;;;25.37;15.77;;;;;;;-0.55;58.77;100795.66;5092841;28;20199;-57
2022/01/14 01:10:31;;;;;;;26.23;15.43;;;;;;;-0.61;59.77;100796.06;5092889;28;20631;-58
2022/01/14 01:13:04;;;;;;;29.13;16.03;;;;;;;-0.58;59.28;100800.47;5092595;28;20191;-58
2022/01/14 01:15:31;;;;;;;25.43;15.47;;;;;;;-0.55;59.25;100793.13;5092879;28;20252;-58
2022/01/14 01:17:57;;;;;;;28.53;16.50;;;;;;;-0.55;58.84;100783.94;5092565;28;20195;-58
2022/01/14 01:20:24;;;;;;;24.80;16.17;;;;;;;-0.57;58.12;100785.44;5092627;28;20616;-58
2022/01/14 01:22:54;;;;;;;26.03;14.93;;;;;;;-0.54;57.73;100779.75;5092438;28;20287;-59
2022/01/14 01:25:24;;;;;;;27.23;16.47;;;;;;;-0.56;57.60;100777.09;5092737;28;20567;-58
2022/01/14 01:27:54;;;;;;;26.53;15.67;;;;;;;-0.50;57.22;100771.66;5092408;28;20222;-58
2022/01/14 01:30:50;;;;;;;25.33;16.03;;;;;;;-0.57;57.73;100771.91;5092654;28;20621;-57
2022/01/14 01:33:17;;;;;;;27.23;16.13;;;;;;;-0.57;58.47;100756.78;5092328;28;20201;-58
2022/01/14 01:35:45;;;;;;;23.00;15.87;;;;;;;-0.66;58.96;100746.84;5092124;28;20233;-57
2022/01/14 01:38:16;;;;;;;26.63;15.70;;;;;;;-0.62;59.01;100748.84;5092134;28;20191;-57
2022/01/14 01:40:44;;;;;;;29.97;16.20;;;;;;;-0.62;59.25;100734.59;5092334;28;20392;-57
2022/01/14 01:43:14;;;;;;;29.43;17.63;;;;;;;-0.60;59.03;100744.78;5092025;28;20666;-57
2022/01/14 01:45:41;;;;;;;26.60;16.67;;;;;;;-0.60;59.58;100740.63;5092218;28;20306;-57
2022/01/14 01:48:08;;;;;;;23.77;15.93;;;;;;;-0.56;59.08;100741.78;5091884;28;20195;-57
2022/01/14 01:50:37;;;;;;;24.37;16.37;;;;;;;-0.53;59.86;100733.56;5091840;28;20191;-57
2022/01/14 01:53:05;;;;;;;26.43;16.90;;;;;;;-0.57;60.52;100739.09;5092367;28;20295;-57
2022/01/14 01:55:33;;;;;;;23.50;15.70;;;;;;;-0.47;59.23;100731.53;5092106;28;20212;-57
2022/01/14 01:58:00;;;;;;;23.80;15.67;;;;;;;-0.53;59.89;100731.94;5091828;28;20195;-58
2022/01/14 02:00:30;;;;;;;26.93;15.50;;;;;;;-0.53;59.82;100716.78;5091800;28;20203;-58
2022/01/14 02:02:58;;;;;;;24.17;16.57;;;;;;;-0.43;59.64;100714.22;5091828;28;20202;-57
2022/01/14 02:05:25;;;;;;;25.33;16.37;;;;;;;-0.38;59.87;100706.97;5091770;28;20571;-58
2022/01/14 02:07:52;;;;;;;27.43;16.97;;;;;;;-0.33;59.92;100708.25;5091706;28;20292;-57
2022/01/14 02:10:20;;;;;;;27.23;16.60;;;;;;;-0.29;60.07;100703.53;5091613;28;20663;-57
2022/01/14 02:12:51;;;;;;;24.27;15.97;;;;;;;-0.29;59.10;100693.44;5092017;28;20194;-57
2022/01/14 02:15:42;;;;;;;26.77;16.73;;;;;;;-0.22;59.09;100687.25;5091390;28;20457;-57
2022/01/14 02:18:37;;;;;;;24.40;16.17;;;;;;;-0.14;58.92;100682.00;5091593;28;20187;-57
2022/01/14 02:24:07;;;;;;;24.87;15.47;;;;;;;-0.16;58.36;100677.59;5091702;28;20325;-57
2022/01/14 02:26:34;;;;;;;26.17;17.23;;;;;;;-0.11;58.18;100687.28;5091218;28;20217;-58
2022/01/14 02:29:01;;;;;;;24.63;15.63;;;;;;;-0.04;57.34;100681.06;5091249;28;20314;-58
2022/01/14 02:31:28;;;;;;;27.43;16.03;;;;;;;-0.01;57.31;100678.78;5091196;28;20669;-57
2022/01/14 02:33:55;;;;;;;24.50;16.00;;;;;;;-0.07;58.03;100668.19;5091211;28;20286;-57
2022/01/14 02:36:25;;;;;;;30.40;18.40;;;;;;;-0.15;58.03;100674.31;5091446;28;20190;-57
2022/01/14 02:38:53;;;;;;;28.40;16.93;;;;;;;-0.13;58.10;100676.19;5091162;28;20275;-57
2022/01/14 02:41:20;;;;;;;29.77;19.20;;;;;;;-0.15;57.52;100676.84;5091106;28;20194;-58
2022/01/14 02:43:46;;;;;;;25.93;16.47;;;;;;;-0.19;57.87;100657.16;5091098;28;20187;-57
2022/01/14 02:46:15;;;;;;;28.43;17.13;;;;;;;-0.22;57.32;100662.00;5090955;28;20309;-57
2022/01/14 02:48:42;;;;;;;26.23;17.30;;;;;;;-0.29;58.07;100654.69;5074834;28;20195;-57
2022/01/14 02:51:12;;;;;;;28.50;16.60;;;;;;;-0.31;58.42;100651.16;5070739;28;20274;-57
2022/01/14 02:53:56;;;;;;;27.73;16.80;;;;;;;-0.58;58.77;100601.09;5070671;28;20200;-57
2022/01/14 02:56:29;;;;;;;28.00;17.07;;;;;;;-0.25;58.21;100649.97;5071017;28;20193;-58
2022/01/14 02:58:58;;;;;;;26.63;16.57;;;;;;;-0.32;58.51;100641.81;5070528;28;20191;-58
2022/01/14 03:01:25;;;;;;;25.73;16.77;;;;;;;-0.30;58.38;100637.81;5069914;28;20723;-57
2022/01/14 03:03:56;;;;;;;26.87;16.77;;;;;;;-0.32;59.05;100632.63;5070630;28;20574;-58
2022/01/14 03:06:23;;;;;;;30.43;16.80;;;;;;;-0.27;58.61;100632.94;5070085;28;20215;-57
2022/01/14 03:08:52;;;;;;;27.83;16.20;;;;;;;-0.28;58.56;100622.00;5070299;28;20195;-57
2022/01/14 03:11:24;;;;;;;26.13;15.40;;;;;;;-0.37;58.88;100616.22;5070564;28;20242;-57
2022/01/14 03:13:51;;;;;;;23.93;14.57;;;;;;;-0.32;59.38;100624.16;5070352;28;20225;-57
2022/01/14 03:16:20;;;;;;;23.93;14.43;;;;;;;-0.29;58.87;100606.72;5070190;28;20183;-57
2022/01/14 03:18:50;;;;;;;24.10;14.83;;;;;;;-0.30;58.40;100603.31;5070306;28;20268;-57
2022/01/14 03:21:26;;;;;;;25.30;14.47;;;;;;;-0.45;58.65;100573.50;5070192;28;20191;-58
2022/01/14 03:24:14;;;;;;;25.87;13.07;;;;;;;-0.31;57.88;100578.84;5070054;28;20194;-58
2022/01/14 03:26:41;;;;;;;18.73;12.00;;;;;;;-0.14;57.72;100585.16;5070039;28;20215;-57
2022/01/14 03:29:08;;;;;;;18.27;12.00;;;;;;;-0.11;57.86;100580.34;5069860;28;20230;-58
2022/01/14 03:31:35;;;;;;;17.30;11.03;;;;;;;-0.01;57.13;100580.25;5070134;28;20196;-57
2022/01/14 03:34:02;;;;;;;18.87;11.60;;;;;;;0.02;56.67;100575.44;5070119;28;20282;-58
2022/01/14 03:36:29;;;;;;;18.23;11.60;;;;;;;-0.06;56.69;100579.94;5070213;28;20275;-58
2022/01/14 03:38:57;;;;;;;19.47;11.73;;;;;;;0.06;57.30;100567.31;5069947;28;20199;-58
2022/01/14 03:41:24;;;;;;;15.57;10.90;;;;;;;0.06;57.17;100569.84;5070164;28;20200;-58
2022/01/14 03:43:51;;;;;;;17.87;11.30;;;;;;;0.07;57.51;100558.09;5070107;28;20203;-58
2022/01/14 03:46:18;;;;;;;16.93;11.57;;;;;;;0.08;57.60;100553.16;5069913;28;20305;-59
2022/01/14 03:48:45;;;;;;;16.80;12.17;;;;;;;0.02;56.83;100545.13;5070209;28;20270;-57
2022/01/14 03:51:13;;;;;;;23.00;12.83;;;;;;;0.17;55.26;100533.63;5069971;28;20202;-58
2022/01/14 03:53:40;;;;;;;20.03;12.93;;;;;;;0.16;55.69;100523.41;5070022;28;20253;-57
2022/01/14 03:56:08;;;;;;;22.10;13.20;;;;;;;0.18;55.14;100548.00;5069987;28;20270;-58
2022/01/14 03:58:36;;;;;;;19.23;12.90;;;;;;;0.17;55.70;100547.88;5069849;28;20200;-58
2022/01/14 04:01:06;;;;;;;21.17;12.63;;;;;;;0.22;56.38;100542.41;5070149;28;20199;-58
2022/01/14 04:03:33;;;;;;;17.03;11.70;;;;;;;0.22;56.81;100551.66;5070264;28;20259;-57
2022/01/14 04:06:00;;;;;;;18.60;12.83;;;;;;;0.18;56.86;100555.59;5069701;28;20215;-56
2022/01/14 04:08:26;;;;;;;19.30;13.40;;;;;;;0.09;56.83;100549.84;5069895;28;20191;-56
2022/01/14 04:10:56;;;;;;;24.13;14.20;;;;;;;0.08;58.16;100550.66;5069728;28;20717;-57
2022/01/14 04:13:36;;;;;;;22.60;14.03;;;;;;;0.06;57.69;100548.75;5070423;28;20191;-57
2022/01/14 04:16:04;;;;;;;23.40;14.17;;;;;;;0.06;58.05;100543.69;5073614;28;20658;-57
2022/01/14 04:18:30;;;;;;;23.73;14.33;;;;;;;0.04;58.53;100540.19;5073512;28;20188;-58
2022/01/14 04:20:57;;;;;;;23.37;13.97;;;;;;;0.03;58.16;100546.00;5073685;28;20191;-58
2022/01/14 04:23:24;;;;;;;19.83;14.17;;;;;;;-0.04;58.84;100539.63;5073594;28;20206;-58
2022/01/14 04:25:53;;;;;;;25.40;14.37;;;;;;;-0.05;59.28;100546.31;5073196;28;20293;-57
2022/01/14 04:28:21;;;;;;;25.03;15.60;;;;;;;-0.04;59.39;100539.63;5073208;28;20230;-58
2022/01/14 04:30:54;;;;;;;22.00;14.07;;;;;;;-0.26;59.33;100493.34;5073319;28;20274;-57
2022/01/14 04:33:21;;;;;;;23.57;14.93;;;;;;;-0.03;59.38;100529.63;5073500;28;20191;-57
2022/01/14 04:35:48;;;;;;;20.47;14.03;;;;;;;-0.04;59.59;100527.88;5073291;28;20188;-57
2022/01/14 04:38:15;;;;;;;22.80;14.00;;;;;;;-0.04;59.63;100516.88;5073105;28;20674;-57
2022/01/14 04:40:42;;;;;;;26.07;15.37;;;;;;;-0.04;59.25;100512.72;5073101;28;20278;-57
2022/01/14 04:43:09;;;;;;;23.20;14.20;;;;;;;-0.04;59.09;100506.78;5073353;28;20187;-57
2022/01/14 04:45:54;;;;;;;21.50;13.77;;;;;;;-0.06;59.25;100514.25;5072962;28;20670;-57
2022/01/14 04:48:23;;;;;;;22.93;14.07;;;;;;;-0.04;59.19;100510.19;5072995;28;20191;-57
2022/01/14 04:50:51;;;;;;;22.90;14.97;;;;;;;0.03;58.38;100514.03;5073215;28;20188;-58
2022/01/14 04:53:18;;;;;;;23.60;14.17;;;;;;;-0.04;58.78;100510.19;5073248;28;20202;-57
2022/01/14 04:55:45;;;;;;;21.23;13.70;;;;;;;0.00;59.37;100507.09;5072843;28;20192;-57
2022/01/14 04:58:12;;;;;;;26.73;14.33;;;;;;;-0.05;59.89;100498.31;5073117;28;20202;-57
2022/01/14 05:00:39;;;;;;;25.67;14.50;;;;;;;-0.03;59.91;100508.56;5072889;28;20191;-57
2022/01/14 05:03:07;;;;;;;24.60;15.13;;;;;;;0.01;59.89;100510.53;5073104;28;20187;-56
2022/01/14 05:05:39;;;;;;;22.53;14.77;;;;;;;0.00;60.20;100516.34;5073496;28;20196;-57
2022/01/14 05:08:09;;;;;;;25.37;13.80;;;;;;;-0.15;59.57;100510.16;5072991;28;20196;-57
2022/01/14 05:10:49;;;;;;;23.17;14.90;;;;;;;-0.13;60.75;100518.72;5072756;28;20253;-57
2022/01/14 05:13:16;;;;;;;24.00;14.70;;;;;;;-0.16;60.70;100518.50;5072873;28;20195;-57
2022/01/14 05:15:43;;;;;;;20.60;13.73;;;;;;;-0.08;59.56;100509.84;5072700;28;20198;-57
2022/01/14 05:18:10;;;;;;;26.83;13.03;;;;;;;-0.06;59.58;100518.44;5072559;28;20192;-57
2022/01/14 05:20:38;;;;;;;22.30;13.13;;;;;;;-0.05;59.72;100516.00;5072593;28;20311;-57
2022/01/14 05:23:05;;;;;;;20.77;13.90;;;;;;;-0.01;58.58;100517.13;5072348;28;20199;-57
2022/01/14 05:25:32;;;;;;;20.47;14.40;;;;;;;0.07;59.34;100526.13;5071694;28;20200;-58
2022/01/14 05:27:59;;;;;;;23.43;14.30;;;;;;;-0.20;58.85;100481.16;5071901;28;20235;-58
2022/01/14 05:30:27;;;;;;;22.83;14.83;;;;;;;0.03;58.47;100514.03;5072413;28;20600;-58
2022/01/14 05:32:56;;;;;;;24.63;14.60;;;;;;;0.05;58.27;100497.38;5071859;28;20188;-57
2022/01/14 05:35:27;;;;;;;25.17;14.87;;;;;;;-0.03;59.14;100493.41;5071983;28;20282;-58
2022/01/14 05:37:55;;;;;;;20.30;13.70;;;;;;;0.04;58.61;100492.19;5072150;28;20270;-58
2022/01/14 05:40:24;;;;;;;20.07;13.00;;;;;;;0.05;58.33;100487.25;5071767;28;20666;-58
2022/01/14 05:42:51;;;;;;;20.67;12.73;;;;;;;0.05;58.66;100486.38;5071993;28;20214;-58
2022/01/14 05:45:18;;;;;;;22.27;13.60;;;;;;;0.11;58.48;100501.97;5071661;28;20784;-58
2022/01/14 05:47:46;;;;;;;22.93;13.83;;;;;;;0.10;58.39;100475.84;5071926;28;20223;-58
2022/01/14 05:50:15;;;;;;;25.53;14.17;;;;;;;0.17;57.54;100472.97;5071828;28;20278;-58
2022/01/14 05:52:42;;;;;;;17.30;12.67;;;;;;;0.20;57.96;100467.25;5071710;28;20187;-57
2022/01/14 05:55:12;;;;;;;23.60;14.57;;;;;;;0.27;57.14;100464.44;5071429;28;20433;-57
2022/01/14 05:57:40;;;;;;;25.50;13.20;;;;;;;0.32;56.57;100468.16;5071768;28;20230;-57
2022/01/14 06:00:08;;;;;;;20.77;12.47;;;;;;;0.33;56.82;100452.22;5071092;28;20615;-57
2022/01/14 06:02:35;;;;;;;20.13;12.33;;;;;;;0.39;56.51;100447.59;5071248;28;20195;-56
2022/01/14 06:05:02;;;;;;;20.27;12.33;;;;;;;0.45;56.90;100436.28;5071143;28;20195;-57
2022/01/14 06:07:29;;;;;;;18.53;11.57;;;;;;;0.54;56.52;100431.00;5071063;28;20234;-56
2022/01/14 06:09:56;;;;;;;22.40;13.50;;;;;;;0.45;56.19;100408.47;5070009;28;20434;-57
2022/01/14 06:12:25;;;;;;;17.13;11.10;;;;;;;0.72;55.54;100434.78;5071520;28;20198;-57
2022/01/14 06:14:52;;;;;;;16.07;10.73;;;;;;;0.72;56.38;100426.31;5071655;28;20218;-57
2022/01/14 06:17:19;;;;;;;17.77;10.50;;;;;;;0.77;55.76;100432.59;5071176;28;20303;-57
2022/01/14 06:19:46;;;;;;;20.00;10.60;;;;;;;0.77;54.88;100435.97;5071058;28;20202;-58
2022/01/14 06:22:13;;;;;;;17.40;11.20;;;;;;;0.87;54.79;100442.56;5070944;28;20237;-57
2022/01/14 06:24:40;;;;;;;21.73;10.40;;;;;;;0.95;55.09;100421.22;5070843;28;20318;-58
2022/01/14 06:27:07;;;;;;;15.83;8.87;;;;;;;0.99;54.38;100415.59;5071012;28;20249;-58
2022/01/14 06:29:35;;;;;;;16.07;10.03;;;;;;;1.02;54.22;100390.47;5071083;28;20303;-58
2022/01/14 06:32:02;;;;;;;13.77;9.27;;;;;;;1.09;54.22;100407.84;5070778;28;20579;-57
2022/01/14 06:34:29;;;;;;;11.97;8.23;;;;;;;1.14;54.26;100404.84;5070526;28;20282;-58
2022/01/14 06:36:56;;;;;;;14.23;8.20;;;;;;;1.19;53.37;100397.56;5069735;28;20203;-58
2022/01/14 06:39:23;;;;;;;12.77;8.07;;;;;;;1.23;53.79;100401.19;5070756;28;20348;-57
2022/01/14 06:41:50;;;;;;;15.80;8.47;;;;;;;1.29;53.09;100387.31;5070208;28;20195;-56
2022/01/14 06:44:17;;;;;;;14.33;8.90;;;;;;;1.36;52.72;100394.50;5070084;28;20698;-57
2022/01/14 06:46:45;;;;;;;9.53;7.80;;;;;;;1.45;52.58;100386.66;5070256;28;21031;-58
2022/01/14 06:49:12;;;;;;;13.60;9.30;;;;;;;1.45;53.44;100390.06;5069645;28;20183;-58
2022/01/14 06:51:39;;;;;;;16.07;9.50;;;;;;;1.46;53.44;100389.28;5069063;28;20187;-57
2022/01/14 06:54:06;;;;;;;17.87;9.57;;;;;;;1.47;53.17;100385.09;5069526;28;20203;-58
2022/01/14 06:56:33;;;;;;;13.20;8.67;;;;;;;1.48;53.41;100402.94;5069998;28;20290;-58
2022/01/14 06:59:00;;;;;;;15.73;10.07;;;;;;;1.52;53.53;100387.16;5070017;28;20192;-59
2022/01/14 07:01:27;;;;;;;13.20;9.23;;;;;;;1.57;53.74;100393.38;5070159;28;20199;-58
2022/01/14 07:03:55;;;;;;;16.30;9.83;;;;;;;1.72;53.51;100394.41;5069982;28;20252;-58
2022/01/14 07:06:22;;;;;;;13.80;9.10;;;;;;;2.11;52.18;100405.34;5070088;28;20188;-58
2022/01/14 07:08:49;;;;;;;14.43;9.03;;;;;;;2.74;50.59;100404.31;5070073;28;20202;-57
2022/01/14 07:11:16;;;;;;;14.33;9.13;;;;;;;2.86;49.95;100407.59;5069823;28;20206;-58
2022/01/14 07:13:42;;;;;;;15.90;9.63;;;;;;;2.49;50.50;100405.22;5070221;28;20611;-57
2022/01/14 07:16:09;;;;;;;13.50;8.70;;;;;;;2.38;50.77;100422.31;5069937;28;20219;-58
2022/01/14 07:18:36;;;;;;;17.43;10.27;;;;;;;2.19;51.19;100388.97;5069991;28;20635;-58
2022/01/14 07:21:05;;;;;;;13.73;9.07;;;;;;;2.30;51.30;100410.81;5070334;28;20191;-58
2022/01/14 07:23:32;;;;;;;15.83;9.37;;;;;;;2.27;51.37;100396.28;5069228;28;20646;-57
2022/01/14 07:25:58;;;;;;;17.10;9.40;;;;;;;2.31;51.27;100394.78;5069102;28;20267;-58
2022/01/14 07:28:25;;;;;;;14.60;9.77;;;;;;;2.33;51.49;100381.44;5068649;28;20312;-58
2022/01/14 07:30:52;;;;;;;13.27;8.83;;;;;;;2.37;52.17;100369.84;5069124;28;20211;-58
2022/01/14 07:33:19;;;;;;;12.97;8.83;;;;;;;2.22;51.71;100336.81;5061621;28;20204;-58
2022/01/14 07:35:46;;;;;;;13.17;8.83;;;;;;;2.56;51.48;100374.38;5061371;28;20287;-58
2022/01/14 07:38:14;;;;;;;18.20;10.67;;;;;;;2.48;51.13;100378.09;5058796;28;20684;-58
2022/01/14 07:40:41;;;;;;;14.63;10.10;;;;;;;2.48;51.12;100358.69;5049614;28;20278;-57
2022/01/14 07:43:08;;;;;;;18.43;10.27;;;;;;;2.41;51.47;100366.72;5049905;28;20193;-57
2022/01/14 07:45:35;;;;;;;16.33;10.63;;;;;;;2.57;51.62;100363.47;5049665;28;20224;-57
2022/01/14 07:48:02;;;;;;;19.63;11.47;;;;;;;2.67;51.22;100358.16;5064500;28;20215;-57
2022/01/14 07:50:29;;;;;;;14.83;9.87;;;;;;;2.66;51.17;100344.63;5073934;28;20226;-57
2022/01/14 07:52:56;;;;;;;13.73;9.17;;;;;;;2.68;51.49;100340.50;5073643;28;20522;-58
2022/01/14 07:55:24;;;;;;;13.80;9.03;;;;;;;2.78;51.72;100337.72;5073705;28;20282;-58
2022/01/14 07:57:51;;;;;;;16.37;9.43;;;;;;;2.83;51.25;100335.50;5073437;28;20187;-58
2022/01/14 08:00:18;;;;;;;11.03;8.37;;;;;;;2.93;51.34;100317.47;5073413;28;20202;-57
2022/01/14 08:02:45;;;;;;;11.80;8.07;;;;;;;3.07;51.56;100310.66;5073605;28;20200;-57
2022/01/14 08:05:14;;;;;;;16.30;10.73;;;;;;;3.09;51.11;100298.94;5072629;28;20437;-57
2022/01/14 08:07:45;;;;;;;14.77;10.07;;;;;;;3.34;50.72;100309.72;5073415;28;20220;-59
2022/01/14 08:10:12;;;;;;;17.17;9.07;;;;;;;3.39;50.89;100304.13;5073273;28;20245;-58
2022/01/14 08:12:42;;;;;;;15.67;8.93;;;;;;;3.43;51.46;100289.94;5072824;28;20196;-58
2022/01/14 08:15:09;;;;;;;13.43;8.80;;;;;;;3.33;51.31;100250.44;5073325;28;20194;-58
2022/01/14 08:17:36;;;;;;;11.30;7.90;;;;;;;3.59;50.79;100295.09;5073129;28;20274;-58
2022/01/14 08:20:05;;;;;;;14.10;8.37;;;;;;;3.64;50.81;100290.25;5072976;28;20278;-59
2022/01/14 08:22:32;;;;;;;12.90;9.13;;;;;;;3.67;51.30;100285.34;5072781;28;20191;-59
2022/01/14 08:24:59;;;;;;;13.33;8.83;;;;;;;3.80;51.25;100280.16;5072979;28;20195;-59
2022/01/14 08:27:27;;;;;;;11.73;8.43;;;;;;;3.88;50.78;100277.25;5071877;28;20300;-58
2022/01/14 08:29:56;;;;;;;13.20;8.80;;;;;;;3.93;50.67;100277.50;5072991;28;20196;-58
2022/01/14 08:32:23;;;;;;;14.47;8.67;;;;;;;3.78;50.58;100233.47;5073075;28;20284;-58
2022/01/14 08:34:50;;;;;;;14.60;9.27;;;;;;;3.86;50.58;100265.25;5073115;28;20215;-59
2022/01/14 08:37:17;;;;;;;15.13;9.80;;;;;;;3.94;51.01;100262.34;5072675;28;20700;-58
2022/01/14 08:39:44;;;;;;;14.70;9.77;;;;;;;3.87;50.98;100267.91;5072769;28;20288;-58
2022/01/14 08:42:12;;;;;;;18.03;10.50;;;;;;;3.98;51.24;100271.88;5072767;28;20193;-58
2022/01/14 08:44:39;;;;;;;17.67;10.53;;;;;;;4.00;50.68;100288.09;5073248;28;20296;-59
2022/01/14 08:47:10;;;;;;;16.20;10.23;;;;;;;4.05;50.95;100271.41;5072999;28;20216;-59
2022/01/14 08:49:38;;;;;;;14.13;10.80;;;;;;;4.12;51.65;100263.31;5072649;28;20193;-59
2022/01/14 08:52:06;;;;;;;21.63;11.53;;;;;;;4.15;51.64;100268.56;5072646;28;20192;-59
2022/01/14 08:54:33;;;;;;;17.10;11.17;;;;;;;4.20;51.22;100258.66;5072404;28;20196;-58
2022/01/14 08:57:02;;;;;;;16.67;11.73;;;;;;;4.30;51.99;100253.25;5072557;28;20280;-57
2022/01/14 08:59:29;;;;;;;19.47;12.03;;;;;;;4.39;51.67;100242.69;5071065;28;20199;-57
2022/01/14 09:01:56;;;;;;;25.23;12.17;;;;;;;4.45;52.58;100248.97;5072218;28;20286;-59
2022/01/14 09:04:24;;;;;;;18.97;11.30;;;;;;;4.53;52.49;100242.59;5072617;28;20192;-58
2022/01/14 09:06:51;;;;;;;17.73;11.77;;;;;;;4.58;52.34;100225.06;5072296;28;20190;-58
2022/01/14 09:09:18;;;;;;;17.33;11.10;;;;;;;4.55;51.73;100235.06;5072208;28;20288;-58
2022/01/14 09:11:45;;;;;;;16.57;10.70;;;;;;;4.56;51.56;100221.56;5072372;28;20193;-58
2022/01/14 09:14:12;;;;;;;18.30;11.23;;;;;;;4.65;51.94;100219.47;5072094;28;20192;-57
2022/01/14 09:16:39;;;;;;;15.27;10.27;;;;;;;4.65;53.34;100186.38;5072451;28;20188;-57
2022/01/14 09:19:05;;;;;;;15.80;10.87;;;;;;;4.87;53.34;100178.13;5072436;28;20347;-56
2022/01/14 09:21:34;;;;;;;18.60;10.40;;;;;;;4.91;54.61;100185.16;5072031;28;20202;-56
2022/01/14 09:24:04;;;;;;;20.17;11.03;;;;;;;4.89;55.91;100181.66;5072182;28;20202;-56
2022/01/14 09:26:32;;;;;;;22.80;11.37;;;;;;;4.99;55.96;100173.66;5072535;28;20200;-56
2022/01/14 09:28:59;;;;;;;15.87;10.90;;;;;;;5.01;56.62;100152.56;5071901;28;20335;-56
2022/01/14 09:31:26;;;;;;;16.17;11.70;;;;;;;5.13;56.53;100160.81;5072257;28;20218;-56
2022/01/14 09:33:52;;;;;;;14.83;11.40;;;;;;;5.12;56.43;100155.63;5071721;28;20691;-56
2022/01/14 09:36:19;;;;;;;18.10;11.87;;;;;;;5.14;56.52;100137.06;5071663;28;20217;-58
2022/01/14 09:38:48;;;;;;;18.53;11.90;;;;;;;5.22;56.59;100134.88;5072019;28;20205;-58
2022/01/14 09:41:17;;;;;;;18.40;11.90;;;;;;;5.31;56.95;100126.00;5071952;28;20201;-56
2022/01/14 09:43:45;;;;;;;16.40;11.87;;;;;;;5.28;57.91;100124.97;5071597;28;20751;-56
2022/01/14 09:46:12;;;;;;;20.60;13.60;;;;;;;5.27;57.69;100116.47;5071846;28;20208;-59
2022/01/14 09:48:40;;;;;;;20.33;12.87;;;;;;;5.32;57.17;100125.22;5071331;28;20310;-59
2022/01/14 09:51:08;;;;;;;24.63;14.00;;;;;;;5.38;56.13;100124.63;5071828;28;20225;-58
2022/01/14 09:53:35;;;;;;;17.47;12.03;;;;;;;5.40;56.40;100122.13;5071164;28;20668;-58
2022/01/14 09:56:04;;;;;;;18.73;13.80;;;;;;;5.42;56.28;100108.66;5071520;28;20275;-57
2022/01/14 09:58:36;;;;;;;22.53;12.37;;;;;;;5.45;55.89;100103.72;5071635;28;20197;-59
2022/01/14 10:01:11;;;;;;;22.83;12.50;;;;;;;5.51;55.81;100098.91;5071343;28;20263;-58
2022/01/14 10:03:49;;;;;;;16.40;11.63;;;;;;;5.23;55.45;100027.09;5071581;28;20644;-58
2022/01/14 10:06:38;;;;;;;17.97;11.97;;;;;;;5.60;55.41;100086.59;5071003;28;20209;-58
2022/01/14 10:09:08;;;;;;;18.57;11.67;;;;;;;5.70;55.58;100072.56;5070982;28;20261;-59
2022/01/14 10:11:38;;;;;;;19.97;12.40;;;;;;;5.78;55.61;100067.00;5069964;28;20716;-59
2022/01/14 10:14:06;;;;;;;17.13;10.70;;;;;;;5.86;54.39;100081.00;5071252;28;20197;-59
2022/01/14 10:16:33;;;;;;;15.30;10.43;;;;;;;5.91;53.94;100078.63;5070962;28;20196;-59
2022/01/14 10:19:00;;;;;;;15.37;10.87;;;;;;;5.91;54.95;100058.22;5070869;28;20184;-59
2022/01/14 10:21:32;;;;;;;16.43;11.43;;;;;;;5.99;54.55;100056.88;5071158;28;20197;-59
2022/01/14 10:24:00;;;;;;;17.73;12.57;;;;;;;6.15;55.11;100056.75;5070908;28;20563;-58
2022/01/14 10:26:30;;;;;;;16.13;11.23;;;;;;;6.22;55.08;100056.19;5070991;28;20636;-59
2022/01/14 10:29:05;;;;;;;20.10;12.10;;;;;;;6.05;54.99;100021.44;5070600;28;20231;-59
2022/01/14 10:31:34;;;;;;;14.57;9.60;;;;;;;6.22;56.13;100032.34;5070922;28;20188;-58
2022/01/14 10:34:10;;;;;;;14.20;10.30;;;;;;;6.29;56.68;100031.81;5070860;28;20195;-59
2022/01/14 10:36:37;;;;;;;17.20;10.83;;;;;;;6.31;57.47;100020.00;5070794;28;20195;-59
2022/01/14 10:39:19;;;;;;;16.90;9.90;;;;;;;6.22;57.85;99989.88;5070741;28;20194;-58
2022/01/14 10:41:47;;;;;;;16.05;11.95;;;;;;;6.51;58.41;100004.66;5069533;28;20517;-58
2022/01/14 10:44:27;;;;;;;13.87;10.33;;;;;;;6.63;57.93;99988.97;5069912;28;20284;-58
2022/01/14 10:47:13;;;;;;;14.87;10.20;;;;;;;6.75;58.74;99998.81;5067285;28;20282;-58
2022/01/14 10:49:40;;;;;;;12.30;8.33;;;;;;;6.72;58.82;99991.03;5069756;28;20265;-59
2022/01/14 10:52:14;;;;;;;12.03;8.40;;;;;;;6.83;59.23;99989.75;5069624;28;20660;-59
2022/01/14 10:54:44;;;;;;;11.83;8.50;;;;;;;6.88;59.03;99978.03;5068311;28;20223;-58
2022/01/14 10:57:19;;;;;;;12.60;8.57;;;;;;;6.89;59.17;99977.22;5069663;28;20183;-58
2022/01/14 10:59:49;;;;;;;12.37;8.23;;;;;;;6.84;58.81;99960.88;5070296;28;20228;-59
2022/01/14 11:02:32;;;;;;;12.47;9.10;;;;;;;6.92;58.43;99973.09;5067331;28;20387;-59
2022/01/14 11:05:08;;;;;;;12.37;8.73;;;;;;;6.87;58.25;99951.63;5067638;28;20192;-58
2022/01/14 11:07:35;;;;;;;13.23;8.83;;;;;;;6.92;59.14;99946.69;5067186;28;20182;-58
2022/01/14 11:10:13;;;;;;;15.13;9.30;;;;;;;7.01;58.32;99947.03;5068610;28;20208;-59
2022/01/14 11:12:41;;;;;;;13.60;8.73;;;;;;;7.01;58.43;99944.47;5069083;28;20195;-58
2022/01/14 11:15:11;;;;;;;10.17;7.63;;;;;;;7.07;57.97;99943.03;5069226;28;20200;-58
2022/01/14 11:17:39;;;;;;;13.85;8.88;;;;;;;7.13;58.83;99939.81;5066763;28;20954;-58
2022/01/14 11:20:09;;;;;;;12.43;8.77;;;;;;;7.20;58.68;99931.56;5068736;28;20275;-58
2022/01/14 11:25:21;;;;;;;15.47;8.80;;;;;;;7.12;59.03;99912.53;5069475;28;20295;-59
2022/01/14 11:27:53;;;;;;;13.33;8.33;;;;;;;7.19;58.69;99911.94;5067742;28;20229;-58
2022/01/14 11:30:22;;;;;;;13.77;9.63;;;;;;;7.18;58.03;99909.31;5068079;28;20189;-58
2022/01/14 11:32:53;;;;;;;13.87;8.03;;;;;;;7.22;58.21;99916.28;5067955;28;20186;-58
2022/01/14 11:35:22;;;;;;;14.47;9.63;;;;;;;7.19;58.42;99914.50;5067522;28;20275;-58
2022/01/14 11:37:49;;;;;;;13.50;8.43;;;;;;;7.23;58.13;99905.25;5069665;28;20190;-58
2022/01/14 11:40:16;;;;;;;14.77;9.63;;;;;;;7.27;58.37;99881.53;5069830;28;20203;-59
2022/01/14 11:42:45;;;;;;;13.87;9.43;;;;;;;7.19;58.11;99868.50;5069852;28;20293;-59